createdAt,value
2023-03-30T00:02:05.744Z,15.53
2023-03-30T00:05:08.772Z,15.48
2023-03-30T00:08:11.142Z,15.42
2023-03-30T00:11:18.244Z,15.41
2023-03-30T00:14:22.980Z,15.52
2023-03-30T00:17:26.264Z,15.53
2023-03-30T00:20:28.371Z,15.47
2023-03-30T00:23:30.518Z,15.54
2023-03-30T00:26:32.576Z,15.54
2023-03-30T00:29:34.870Z,15.49
2023-03-30T00:32:40.024Z,15.50
2023-03-30T00:35:53.702Z,15.42
2023-03-30T00:38:59.443Z,15.38
2023-03-30T00:42:01.826Z,15.43
2023-03-30T00:45:19.560Z,15.31
2023-03-30T00:48:34.792Z,15.30
2023-03-30T00:51:44.541Z,15.32
2023-03-30T00:54:47.830Z,15.29
2023-03-30T00:57:51.457Z,15.24
2023-03-30T01:00:54.437Z,15.35
2023-03-30T01:04:02.422Z,15.31
2023-03-30T01:07:06.110Z,15.35
2023-03-30T01:10:09.294Z,15.31
2023-03-30T01:13:14.784Z,15.19
2023-03-30T01:16:45.871Z,15.22
2023-03-30T01:20:13.037Z,15.32
2023-03-30T01:23:35.518Z,15.33
2023-03-30T01:27:10.285Z,15.22
2023-03-30T01:30:33.625Z,15.30
2023-03-30T01:34:06.503Z,15.31
2023-03-30T01:37:32.623Z,15.34
2023-03-30T01:40:43.262Z,15.17
2023-03-30T01:43:56.442Z,15.07
2023-03-30T01:47:06.410Z,15.16
2023-03-30T01:50:21.845Z,15.20
2023-03-30T01:53:56.560Z,15.07
2023-03-30T01:57:34.276Z,15.14
2023-03-30T02:00:41.078Z,14.99
2023-03-30T02:03:48.024Z,15.03
2023-03-30T02:06:58.807Z,15.19
2023-03-30T02:10:04.952Z,15.09
2023-03-30T02:13:09.771Z,15.22
2023-03-30T02:16:22.182Z,15.12
2023-03-30T02:19:28.353Z,15.14
2023-03-30T02:22:32.606Z,15.18
2023-03-30T02:25:38.654Z,15.07
2023-03-30T02:28:41.126Z,15.15
2023-03-30T02:31:45.689Z,15.12
2023-03-30T02:35:18.929Z,15.09
2023-03-30T02:38:35.687Z,15.05
2023-03-30T02:42:05.076Z,15.03
2023-03-30T02:45:10.662Z,15.08
2023-03-30T02:48:36.837Z,15.15
2023-03-30T02:51:53.141Z,15.16
2023-03-30T02:55:14.825Z,15.01
2023-03-30T02:58:43.698Z,15.05
2023-03-30T03:02:09.618Z,15.05
2023-03-30T03:05:14.859Z,15.05
2023-03-30T03:08:40.542Z,15.17
2023-03-30T03:11:44.886Z,15.06
2023-03-30T03:14:47.030Z,15.08
2023-03-30T03:17:51.728Z,14.99
2023-03-30T03:20:53.945Z,15.03
2023-03-30T03:23:58.458Z,14.99
2023-03-30T03:27:11.969Z,15.09
2023-03-30T03:30:36.146Z,15.11
2023-03-30T03:33:44.303Z,15.12
2023-03-30T03:36:59.685Z,15.19
2023-03-30T03:40:06.440Z,15.09
2023-03-30T03:43:08.654Z,15.09
2023-03-30T03:46:11.598Z,15.14
2023-03-30T03:49:13.942Z,15.14
2023-03-30T03:52:16.121Z,15.21
2023-03-30T03:55:18.755Z,15.18
2023-03-30T03:58:27.431Z,15.09
2023-03-30T04:01:32.674Z,15.18
2023-03-30T04:04:38.524Z,15.13
2023-03-30T04:07:41.772Z,15.06
2023-03-30T04:10:44.402Z,15.03
2023-03-30T04:14:15.742Z,14.95
2023-03-30T04:17:50.087Z,14.90
2023-03-30T04:21:13.750Z,14.99
2023-03-30T04:24:29.906Z,14.88
2023-03-30T04:27:53.630Z,14.90
2023-03-30T04:31:10.797Z,14.81
2023-03-30T04:34:36.281Z,14.91
2023-03-30T04:38:02.497Z,14.90
2023-03-30T04:41:36.174Z,14.97
2023-03-30T04:45:07.151Z,14.95
2023-03-30T04:48:39.434Z,15.00
2023-03-30T04:52:00.691Z,15.06
2023-03-30T04:55:26.813Z,14.97
2023-03-30T04:59:04.367Z,14.98
2023-03-30T05:02:26.497Z,15.11
2023-03-30T05:05:55.806Z,15.60
2023-03-30T05:09:36.497Z,16.35
2023-03-30T05:13:01.763Z,17.37
2023-03-30T05:16:28.582Z,17.94
2023-03-30T05:20:10.254Z,18.08
2023-03-30T05:23:36.454Z,18.88
2023-03-30T05:27:13.145Z,19.41
2023-03-30T05:30:35.197Z,19.25
2023-03-30T05:34:11.137Z,20.28
2023-03-30T05:37:37.421Z,20.17
2023-03-30T05:40:58.834Z,19.74
2023-03-30T05:44:22.421Z,20.50
2023-03-30T05:47:35.039Z,20.23
2023-03-30T05:51:17.610Z,19.54
2023-03-30T05:54:36.550Z,20.51
2023-03-30T05:57:50.564Z,19.88
2023-03-30T06:01:16.333Z,19.13
2023-03-30T06:04:21.201Z,20.53
2023-03-30T06:07:32.251Z,19.64
2023-03-30T06:10:36.218Z,19.16
2023-03-30T06:13:38.977Z,19.92
2023-03-30T06:16:41.349Z,19.92
2023-03-30T06:19:45.267Z,19.41
2023-03-30T06:22:48.806Z,19.38
2023-03-30T06:25:59.631Z,20.19
2023-03-30T06:29:07.740Z,19.29
2023-03-30T06:32:10.437Z,19.11
2023-03-30T06:35:30.512Z,19.78
2023-03-30T06:38:36.195Z,19.20
2023-03-30T06:41:38.515Z,19.26
2023-03-30T06:44:40.789Z,19.49
2023-03-30T06:47:48.659Z,19.22
2023-03-30T06:50:54.705Z,19.46
2023-03-30T06:53:59.573Z,19.58
2023-03-30T06:57:04.366Z,19.57
2023-03-30T07:00:26.274Z,20.14
2023-03-30T07:03:48.884Z,19.81
2023-03-30T07:06:59.654Z,21.42
2023-03-30T07:10:53.084Z,20.55
2023-03-30T07:14:08.364Z,20.18
2023-03-30T07:17:13.335Z,20.45
2023-03-30T07:20:17.579Z,20.30
2023-03-30T07:23:46.117Z,20.05
2023-03-30T07:27:01.338Z,20.76
2023-03-30T07:30:20.673Z,20.66
2023-03-30T07:33:29.935Z,20.27
2023-03-30T07:36:34.109Z,20.58
2023-03-30T07:39:37.245Z,20.94
2023-03-30T07:42:43.408Z,20.48
2023-03-30T07:45:46.250Z,20.62
2023-03-30T07:48:56.223Z,21.14
2023-03-30T07:51:59.434Z,20.61
2023-03-30T07:55:12.482Z,20.42
2023-03-30T07:58:24.841Z,20.60
2023-03-30T08:01:28.124Z,20.74
2023-03-30T08:04:50.951Z,20.81
2023-03-30T08:08:01.244Z,20.77
2023-03-30T08:11:09.253Z,20.93
2023-03-30T08:14:15.735Z,21.04
2023-03-30T08:17:19.424Z,20.97
2023-03-30T08:20:21.944Z,21.16
2023-03-30T08:23:25.317Z,21.40
2023-03-30T08:26:30.186Z,21.70
2023-03-30T08:29:33.955Z,21.64
2023-03-30T08:32:36.152Z,21.47
2023-03-30T08:35:38.352Z,21.27
2023-03-30T08:38:41.235Z,21.19
2023-03-30T08:41:58.206Z,20.81
2023-03-30T08:45:06.711Z,20.69
2023-03-30T08:48:25.096Z,20.59
2023-03-30T08:51:36.018Z,20.47
2023-03-30T08:54:38.246Z,20.33
2023-03-30T08:57:55.133Z,20.00
2023-03-30T09:01:15.062Z,19.88
2023-03-30T09:05:02.103Z,19.59
2023-03-30T09:08:18.480Z,19.45
2023-03-30T09:11:35.756Z,19.36
2023-03-30T09:14:46.662Z,19.37
2023-03-30T09:17:55.366Z,19.32
2023-03-30T09:21:01.696Z,19.21
2023-03-30T09:24:14.635Z,19.13
2023-03-30T09:27:25.416Z,18.88
2023-03-30T09:30:40.747Z,18.84
2023-03-30T09:33:54.908Z,18.86
2023-03-30T09:36:59.085Z,18.71
2023-03-30T09:40:48.575Z,18.69
2023-03-30T09:43:52.967Z,18.85
2023-03-30T09:46:59.124Z,19.19
2023-03-30T09:50:05.980Z,19.25
2023-03-30T09:53:35.249Z,19.38
2023-03-30T09:56:51.542Z,19.53
2023-03-30T09:59:56.017Z,19.61
2023-03-30T10:03:07.022Z,19.60
2023-03-30T10:06:19.891Z,19.48
2023-03-30T10:09:24.177Z,19.55
2023-03-30T10:12:28.572Z,19.76
2023-03-30T10:15:35.643Z,19.88
2023-03-30T10:18:41.579Z,19.86
2023-03-30T10:21:47.152Z,19.95
2023-03-30T10:24:55.550Z,19.96
2023-03-30T10:28:01.491Z,20.01
2023-03-30T10:31:13.109Z,20.00
2023-03-30T10:34:21.026Z,20.01
2023-03-30T10:37:32.075Z,19.93
2023-03-30T10:40:42.357Z,19.88
2023-03-30T10:43:45.121Z,19.87
2023-03-30T10:46:49.117Z,19.85
2023-03-30T10:50:27.010Z,20.06
2023-03-30T10:53:43.119Z,19.99
2023-03-30T10:56:55.976Z,19.72
2023-03-30T11:00:23.091Z,19.53
2023-03-30T11:03:29.840Z,19.46
2023-03-30T11:06:42.305Z,19.50
2023-03-30T11:09:55.079Z,19.33
2023-03-30T11:13:06.017Z,19.23
2023-03-30T11:16:23.665Z,19.24
2023-03-30T11:19:47.824Z,19.24
2023-03-30T11:23:47.300Z,19.22
2023-03-30T11:27:14.317Z,19.20
2023-03-30T11:30:27.894Z,19.11
2023-03-30T11:33:46.875Z,19.29
2023-03-30T11:37:00.662Z,19.50
2023-03-30T11:40:16.728Z,19.65
2023-03-30T11:43:26.506Z,19.63
2023-03-30T11:47:09.693Z,19.61
2023-03-30T11:50:39.047Z,19.56
2023-03-30T11:54:12.214Z,19.47
2023-03-30T11:58:06.609Z,19.38
2023-03-30T12:01:24.431Z,19.48
2023-03-30T12:04:58.911Z,19.54
2023-03-30T12:08:10.607Z,19.45
2023-03-30T12:11:33.536Z,19.44
2023-03-30T12:14:45.901Z,19.36
2023-03-30T12:17:49.172Z,19.35
2023-03-30T12:21:17.919Z,19.29
2023-03-30T12:24:34.104Z,19.35
2023-03-30T12:27:37.686Z,19.36
2023-03-30T12:30:59.823Z,19.22
2023-03-30T12:34:16.193Z,19.22
2023-03-30T12:37:24.703Z,19.28
2023-03-30T12:40:29.737Z,19.27
2023-03-30T12:43:42.601Z,19.20
2023-03-30T12:47:12.602Z,19.13
2023-03-30T12:50:42.699Z,19.05
2023-03-30T12:54:25.217Z,19.06
2023-03-30T12:58:01.340Z,18.94
2023-03-30T13:01:22.638Z,18.91
2023-03-30T13:04:30.199Z,18.90
2023-03-30T13:07:36.580Z,18.95
2023-03-30T13:10:43.303Z,18.97
2023-03-30T13:14:30.458Z,18.91
2023-03-30T13:17:56.755Z,19.01
2023-03-30T13:21:17.172Z,18.99
2023-03-30T13:24:28.691Z,18.95
2023-03-30T13:27:36.873Z,18.95
2023-03-30T13:30:39.161Z,18.84
2023-03-30T13:33:52.845Z,18.75
2023-03-30T13:37:05.107Z,18.73
2023-03-30T13:40:44.108Z,18.67
2023-03-30T13:44:18.721Z,18.76
2023-03-30T13:47:52.699Z,19.00
2023-03-30T13:51:02.488Z,19.13
2023-03-30T13:54:12.574Z,18.87
2023-03-30T13:57:22.043Z,18.80
2023-03-30T14:00:48.659Z,18.77
2023-03-30T14:03:57.484Z,18.78
2023-03-30T14:07:25.876Z,18.79
2023-03-30T14:10:28.192Z,18.88
2023-03-30T14:13:30.460Z,18.96
2023-03-30T14:16:36.858Z,19.14
2023-03-30T14:19:52.838Z,19.37
2023-03-30T14:22:58.708Z,19.65
2023-03-30T14:26:04.100Z,19.89
2023-03-30T14:29:13.256Z,19.92
2023-03-30T14:32:17.370Z,19.96
2023-03-30T14:35:19.547Z,20.14
2023-03-30T14:38:34.894Z,20.01
2023-03-30T14:41:38.898Z,19.83
2023-03-30T14:44:41.851Z,19.70
2023-03-30T14:47:46.312Z,19.61
2023-03-30T14:50:49.277Z,19.54
2023-03-30T14:53:53.430Z,19.49
2023-03-30T14:57:01.138Z,19.47
2023-03-30T15:00:21.702Z,19.41
2023-03-30T15:03:33.513Z,19.30
2023-03-30T15:06:58.489Z,19.17
2023-03-30T15:11:34.539Z,19.22
2023-03-30T15:14:42.652Z,19.25
2023-03-30T15:17:50.754Z,19.16
2023-03-30T15:20:56.850Z,19.06
2023-03-30T15:24:01.526Z,18.98
2023-03-30T15:27:07.017Z,18.93
2023-03-30T15:30:37.563Z,18.90
2023-03-30T15:34:01.636Z,18.85
2023-03-30T15:37:04.291Z,18.78
2023-03-30T15:40:28.586Z,18.74
2023-03-30T15:43:33.593Z,18.68
2023-03-30T15:46:36.523Z,18.81
2023-03-30T15:49:43.850Z,18.78
2023-03-30T15:52:46.916Z,18.95
2023-03-30T15:55:52.121Z,19.18
2023-03-30T15:58:54.564Z,19.35
2023-03-30T16:02:02.417Z,19.30
2023-03-30T16:05:08.299Z,19.19
2023-03-30T16:08:11.319Z,19.10
2023-03-30T16:11:16.372Z,19.01
2023-03-30T16:14:23.091Z,18.93
2023-03-30T16:17:25.862Z,18.82
2023-03-30T16:20:31.532Z,18.74
2023-03-30T16:23:33.937Z,18.61
2023-03-30T16:26:36.181Z,18.56
2023-03-30T16:29:38.348Z,18.43
2023-03-30T16:32:40.453Z,18.39
2023-03-30T16:35:49.974Z,18.34
2023-03-30T16:38:53.032Z,18.27
2023-03-30T16:41:56.379Z,18.24
2023-03-30T16:44:58.566Z,18.24
2023-03-30T16:48:01.429Z,18.16
2023-03-30T16:51:06.703Z,18.62
2023-03-30T16:54:29.480Z,18.48
2023-03-30T16:57:34.128Z,18.19
2023-03-30T17:00:43.221Z,17.88
2023-03-30T17:03:48.009Z,17.86
2023-03-30T17:06:50.313Z,18.26
2023-03-30T17:09:52.469Z,18.21
2023-03-30T17:12:55.845Z,18.12
2023-03-30T17:16:00.089Z,18.05
2023-03-30T17:19:02.525Z,18.03
2023-03-30T17:22:04.621Z,18.03
2023-03-30T17:25:09.054Z,17.99
2023-03-30T17:28:23.907Z,17.95
2023-03-30T17:31:26.406Z,17.90
2023-03-30T17:34:28.720Z,17.93
2023-03-30T17:42:56.620Z,17.83
2023-03-30T17:46:00.007Z,17.80
2023-03-30T17:49:19.326Z,17.73
2023-03-30T17:52:21.498Z,17.71
2023-03-30T17:55:39.866Z,17.64
2023-03-30T17:58:48.983Z,17.59
2023-03-30T18:01:56.555Z,17.52
2023-03-30T18:05:17.278Z,17.49
2023-03-30T18:08:21.588Z,17.42
2023-03-30T18:11:27.891Z,17.65
2023-03-30T18:14:32.382Z,17.82
2023-03-30T18:17:34.507Z,18.01
2023-03-30T18:20:44.297Z,18.22
2023-03-30T18:23:47.786Z,18.30
2023-03-30T18:26:51.612Z,18.36
2023-03-30T18:30:21.536Z,18.39
2023-03-30T18:33:25.355Z,18.43
2023-03-30T18:36:28.110Z,18.39
2023-03-30T18:39:30.232Z,19.06
2023-03-30T18:42:45.998Z,20.20
2023-03-30T18:45:50.014Z,20.34
2023-03-30T18:48:54.424Z,20.12
2023-03-30T18:51:58.505Z,19.82
2023-03-30T18:55:04.469Z,19.46
2023-03-30T18:58:22.229Z,19.15
2023-03-30T19:01:27.394Z,18.99
2023-03-30T19:04:32.216Z,19.20
2023-03-30T19:07:37.225Z,19.35
2023-03-30T19:10:42.676Z,19.50
2023-03-30T19:13:47.806Z,19.54
2023-03-30T19:16:49.942Z,19.55
2023-03-30T19:23:13.363Z,19.40
2023-03-30T19:26:18.815Z,19.29
2023-03-30T19:29:21.127Z,19.23
2023-03-30T19:32:26.156Z,19.10
2023-03-30T19:35:31.576Z,19.00
2023-03-30T19:38:35.248Z,18.87
2023-03-30T19:41:44.416Z,18.81
2023-03-30T19:44:55.344Z,18.75
2023-03-30T19:47:57.468Z,18.62
2023-03-30T19:51:02.021Z,18.58
2023-03-30T19:54:05.356Z,18.45
2023-03-30T19:57:18.939Z,18.36
2023-03-30T20:00:23.060Z,18.28
2023-03-30T20:03:31.231Z,18.23
2023-03-30T20:06:36.703Z,18.16
2023-03-30T20:09:42.991Z,18.08
2023-03-30T20:12:48.105Z,18.09
2023-03-30T20:15:58.066Z,18.05
2023-03-30T20:19:02.496Z,17.91
2023-03-30T20:22:04.627Z,17.91
2023-03-30T20:25:08.809Z,17.82
2023-03-30T20:31:57.951Z,17.63
2023-03-30T20:35:00.231Z,17.60
2023-03-30T20:38:08.228Z,17.57
2023-03-30T20:41:12.018Z,17.45
2023-03-30T20:44:14.341Z,17.44
2023-03-30T20:47:32.954Z,17.42
2023-03-30T20:50:35.293Z,17.30
2023-03-30T20:53:38.077Z,17.32
2023-03-30T20:56:46.913Z,17.24
2023-03-30T20:59:50.494Z,17.15
2023-03-30T21:02:52.874Z,17.14
2023-03-30T21:06:06.534Z,17.10
2023-03-30T21:09:10.112Z,17.01
2023-03-30T21:12:12.202Z,17.02
2023-03-30T21:15:15.313Z,17.06
2023-03-30T21:18:17.416Z,16.96
2023-03-30T21:21:19.808Z,16.95
2023-03-30T21:24:21.984Z,16.89
2023-03-30T21:27:28.034Z,16.89
2023-03-30T21:30:33.405Z,16.77
2023-03-30T21:33:36.635Z,16.78
2023-03-30T21:36:39.564Z,16.78
2023-03-30T21:39:42.091Z,16.78
2023-03-30T21:42:44.447Z,16.84
2023-03-30T21:45:55.740Z,16.82
2023-03-30T21:48:58.071Z,16.92
2023-03-30T21:52:00.370Z,16.91
2023-03-30T21:55:03.064Z,16.94
2023-03-30T21:58:05.511Z,16.95
2023-03-30T22:01:11.900Z,16.88
2023-03-30T22:04:15.102Z,16.94
2023-03-30T22:07:17.295Z,16.95
2023-03-30T22:10:19.570Z,16.88
2023-03-30T22:13:21.721Z,16.83
2023-03-30T22:16:29.242Z,16.85
2023-03-30T22:19:32.107Z,16.84
2023-03-30T22:22:34.707Z,16.80
2023-03-30T22:25:37.221Z,16.84
2023-03-30T22:28:40.113Z,16.72
2023-03-30T22:31:42.372Z,16.70
2023-03-30T22:34:44.647Z,16.68
2023-03-30T22:37:46.670Z,16.64
2023-03-30T22:40:48.737Z,16.49
2023-03-30T22:43:52.108Z,16.50
2023-03-30T22:46:54.453Z,16.49
2023-03-30T22:49:56.560Z,16.57
2023-03-30T22:52:58.670Z,16.47
2023-03-30T22:56:01.656Z,16.47
2023-03-30T22:59:03.845Z,16.49
2023-03-30T23:02:05.903Z,16.47
2023-03-30T23:05:09.060Z,16.47
2023-03-30T23:08:12.387Z,16.40
2023-03-30T23:11:14.506Z,16.48
2023-03-30T23:14:16.757Z,16.46
2023-03-30T23:17:18.828Z,16.50
2023-03-30T23:20:22.229Z,16.44
2023-03-30T23:23:24.517Z,16.38
2023-03-30T23:26:27.605Z,16.30
2023-03-30T23:29:29.632Z,16.18
2023-03-30T23:32:32.112Z,16.20
2023-03-30T23:35:34.555Z,16.05
2023-03-30T23:38:37.610Z,15.98
2023-03-30T23:41:39.762Z,16.03
2023-03-30T23:44:41.834Z,15.98
2023-03-30T23:47:44.184Z,15.97
2023-03-30T23:50:46.670Z,15.93
2023-03-30T23:53:54.549Z,15.87
2023-03-30T23:56:57.834Z,15.83
2023-03-30T23:59:59.902Z,15.70
